DAL9754 KLAX-KSLC
Flight info
| Callsign | DAL9754 |
|---|---|
| Flight time | 1h 16m |
| Altitude | 39000 |
| Route | ORCKA5 LAS Q70 BLIPP Q842 WINEN MLF QWENN6 |
| Aircraft | A359/H-SDE2E3GHIJ3J4J5LM1ORWXY/LB1D1 |
Departure
| Time | 2026-04-23 16:17 |
|---|---|
| Airport | Los Angeles International Airport (KLAX) |
Arrival
| Time | 2026-04-23 17:34 |
|---|---|
| Airport | Salt Lake City International Airport (KSLC) |
| Time | Latitude | Longitude | Altitude | Speed | Heading |
|---|---|---|---|---|---|
| 2026-04-23 15:45 | 33.94540 | -118.41009 | 101 ft | 0 kts | 263° |
| 2026-04-23 16:08 | 33.94542 | -118.40988 | 99 ft | 4 kts | 263° |
| 2026-04-23 16:08 | 33.94545 | -118.40957 | 99 ft | 4 kts | 274° |
| 2026-04-23 16:08 | 33.94538 | -118.40928 | 97 ft | 4 kts | 313° |
| 2026-04-23 16:09 | 33.94517 | -118.40909 | 98 ft | 4 kts | 336° |
| 2026-04-23 16:09 | 33.94516 | -118.40910 | 98 ft | 4 kts | 331° |
| 2026-04-23 16:09 | 33.94530 | -118.40915 | 97 ft | 3 kts | 353° |
| 2026-04-23 16:09 | 33.94532 | -118.40915 | 100 ft | 0 kts | 354° |
| 2026-04-23 16:12 | 33.94538 | -118.40916 | 99 ft | 3 kts | 356° |
| 2026-04-23 16:12 | 33.94564 | -118.40908 | 102 ft | 5 kts | 21° |
| 2026-04-23 16:12 | 33.94609 | -118.40897 | 101 ft | 8 kts | 0° |
| 2026-04-23 16:13 | 33.94654 | -118.40903 | 100 ft | 6 kts | 353° |
| 2026-04-23 16:13 | 33.94772 | -118.40887 | 103 ft | 7 kts | 13° |
| 2026-04-23 16:13 | 33.94821 | -118.40868 | 102 ft | 8 kts | 38° |
| 2026-04-23 16:14 | 33.94842 | -118.40802 | 101 ft | 10 kts | 80° |
| 2026-04-23 16:14 | 33.94852 | -118.40707 | 101 ft | 13 kts | 83° |
| 2026-04-23 16:14 | 33.94864 | -118.40589 | 101 ft | 16 kts | 83° |
| 2026-04-23 16:14 | 33.94879 | -118.40447 | 102 ft | 18 kts | 83° |
| 2026-04-23 16:15 | 33.94896 | -118.40285 | 101 ft | 21 kts | 83° |
| 2026-04-23 16:15 | 33.94908 | -118.40164 | 102 ft | 10 kts | 83° |
| 2026-04-23 16:15 | 33.94918 | -118.40069 | 103 ft | 13 kts | 82° |
| 2026-04-23 16:15 | 33.94930 | -118.39965 | 99 ft | 10 kts | 75° |
| 2026-04-23 16:16 | 33.94980 | -118.39911 | 102 ft | 10 kts | 6° |
| 2026-04-23 16:16 | 33.95035 | -118.39954 | 101 ft | 10 kts | 290° |
| 2026-04-23 16:16 | 33.95035 | -118.40006 | 103 ft | 0 kts | 264° |
| 2026-04-23 16:16 | 33.95024 | -118.40123 | 103 ft | 45 kts | 263° |
| 2026-04-23 16:17 | 33.94952 | -118.40830 | 104 ft | 122 kts | 263° |
| 2026-04-23 16:17 | 33.94813 | -118.42088 | 251 ft | 168 kts | 264° |
| 2026-04-23 16:17 | 33.94664 | -118.43484 | 1069 ft | 164 kts | 266° |
| 2026-04-23 16:17 | 33.94554 | -118.44863 | 1842 ft | 173 kts | 263° |
| 2026-04-23 16:18 | 33.94403 | -118.46411 | 2214 ft | 200 kts | 263° |
| 2026-04-23 16:18 | 33.94219 | -118.48163 | 2681 ft | 219 kts | 263° |
| 2026-04-23 16:18 | 33.93996 | -118.50058 | 3201 ft | 240 kts | 264° |
| 2026-04-23 16:18 | 33.93755 | -118.52124 | 3779 ft | 255 kts | 264° |
| 2026-04-23 16:19 | 33.93507 | -118.54275 | 4570 ft | 262 kts | 264° |
| 2026-04-23 16:19 | 33.93255 | -118.56475 | 5408 ft | 268 kts | 264° |
| 2026-04-23 16:19 | 33.92981 | -118.58708 | 6319 ft | 272 kts | 261° |
| 2026-04-23 16:19 | 33.92225 | -118.60807 | 7211 ft | 278 kts | 235° |
| 2026-04-23 16:20 | 33.90743 | -118.62306 | 8227 ft | 283 kts | 209° |
| 2026-04-23 16:20 | 33.88826 | -118.62891 | 9231 ft | 291 kts | 184° |
| 2026-04-23 16:20 | 33.86839 | -118.62449 | 10133 ft | 302 kts | 160° |
| 2026-04-23 16:20 | 33.85025 | -118.61019 | 10611 ft | 327 kts | 137° |
| 2026-04-23 16:21 | 33.83683 | -118.58699 | 10962 ft | 352 kts | 114° |
| 2026-04-23 16:21 | 33.83114 | -118.55784 | 11522 ft | 364 kts | 91° |
| 2026-04-23 16:21 | 33.83444 | -118.52761 | 12218 ft | 369 kts | 69° |
| 2026-04-23 16:21 | 33.84629 | -118.50036 | 12928 ft | 369 kts | 48° |
| 2026-04-23 16:22 | 33.86373 | -118.47756 | 13674 ft | 373 kts | 41° |
| 2026-04-23 16:22 | 33.88197 | -118.45508 | 14378 ft | 379 kts | 40° |
| 2026-04-23 16:22 | 33.90057 | -118.43237 | 15086 ft | 384 kts | 40° |
| 2026-04-23 16:22 | 33.91954 | -118.40917 | 15813 ft | 389 kts | 40° |
| 2026-04-23 16:23 | 33.93863 | -118.38577 | 16535 ft | 395 kts | 40° |
| 2026-04-23 16:23 | 33.95798 | -118.36200 | 17253 ft | 400 kts | 40° |
| 2026-04-23 16:23 | 33.97760 | -118.33785 | 17934 ft | 406 kts | 40° |
| 2026-04-23 16:23 | 33.99722 | -118.31366 | 18588 ft | 411 kts | 41° |
| 2026-04-23 16:24 | 34.01578 | -118.28708 | 18985 ft | 418 kts | 50° |
| 2026-04-23 16:24 | 34.03258 | -118.25810 | 19524 ft | 425 kts | 52° |
| 2026-04-23 16:24 | 34.04919 | -118.22853 | 20227 ft | 427 kts | 52° |
| 2026-04-23 16:24 | 34.06592 | -118.19875 | 20926 ft | 432 kts | 52° |
| 2026-04-23 16:25 | 34.08291 | -118.16860 | 21582 ft | 437 kts | 52° |
| 2026-04-23 16:25 | 34.10011 | -118.13811 | 22253 ft | 441 kts | 52° |
| 2026-04-23 16:25 | 34.11748 | -118.10734 | 22909 ft | 446 kts | 52° |
| 2026-04-23 16:25 | 34.13506 | -118.07628 | 23539 ft | 451 kts | 52° |
| 2026-04-23 16:26 | 34.15279 | -118.04483 | 24076 ft | 456 kts | 52° |
| 2026-04-23 16:26 | 34.17076 | -118.01288 | 24568 ft | 462 kts | 52° |
| 2026-04-23 16:26 | 34.18890 | -117.98061 | 25105 ft | 466 kts | 52° |
| 2026-04-23 16:26 | 34.20721 | -117.94802 | 25632 ft | 470 kts | 52° |
| 2026-04-23 16:27 | 34.22565 | -117.91519 | 26142 ft | 475 kts | 52° |
| 2026-04-23 16:27 | 34.24428 | -117.88198 | 26646 ft | 480 kts | 53° |
| 2026-04-23 16:27 | 34.26312 | -117.84834 | 27120 ft | 485 kts | 53° |
| 2026-04-23 16:27 | 34.28213 | -117.81440 | 27646 ft | 489 kts | 53° |
| 2026-04-23 16:28 | 34.30132 | -117.78010 | 28153 ft | 494 kts | 53° |
| 2026-04-23 16:28 | 34.32061 | -117.74560 | 28601 ft | 498 kts | 53° |
| 2026-04-23 16:28 | 34.33985 | -117.71113 | 29119 ft | 501 kts | 53° |
| 2026-04-23 16:28 | 34.35955 | -117.67605 | 29555 ft | 506 kts | 52° |
| 2026-04-23 16:29 | 34.38021 | -117.64131 | 29979 ft | 510 kts | 51° |
| 2026-04-23 16:29 | 34.40125 | -117.60650 | 30389 ft | 514 kts | 51° |
| 2026-04-23 16:29 | 34.42237 | -117.57144 | 30766 ft | 517 kts | 51° |
| 2026-04-23 16:29 | 34.44354 | -117.53611 | 31239 ft | 518 kts | 51° |
| 2026-04-23 16:30 | 34.46455 | -117.50089 | 32125 ft | 510 kts | 51° |
| 2026-04-23 16:30 | 34.48532 | -117.46602 | 32638 ft | 511 kts | 51° |
| 2026-04-23 16:30 | 34.50601 | -117.43128 | 32799 ft | 519 kts | 51° |
| 2026-04-23 16:30 | 34.52749 | -117.39515 | 33089 ft | 523 kts | 51° |
| 2026-04-23 16:31 | 34.54877 | -117.35929 | 33451 ft | 525 kts | 51° |
| 2026-04-23 16:31 | 34.57016 | -117.32321 | 33787 ft | 528 kts | 51° |
| 2026-04-23 16:31 | 34.59136 | -117.28739 | 34127 ft | 530 kts | 51° |
| 2026-04-23 16:31 | 34.61294 | -117.25092 | 34391 ft | 533 kts | 51° |
| 2026-04-23 16:32 | 34.63490 | -117.21375 | 34627 ft | 536 kts | 51° |
| 2026-04-23 16:32 | 34.65664 | -117.17692 | 34855 ft | 538 kts | 51° |
| 2026-04-23 16:32 | 34.67817 | -117.14039 | 35134 ft | 540 kts | 51° |
| 2026-04-23 16:32 | 34.70007 | -117.10323 | 35383 ft | 542 kts | 51° |
| 2026-04-23 16:33 | 34.72204 | -117.06588 | 35739 ft | 542 kts | 51° |
| 2026-04-23 16:33 | 34.74396 | -117.02857 | 36084 ft | 542 kts | 51° |
| 2026-04-23 16:33 | 34.76589 | -116.99122 | 36393 ft | 542 kts | 51° |
| 2026-04-23 16:33 | 34.78783 | -116.95381 | 36707 ft | 543 kts | 51° |
| 2026-04-23 16:34 | 34.80974 | -116.91641 | 37020 ft | 543 kts | 51° |
| 2026-04-23 16:34 | 34.83169 | -116.87892 | 37355 ft | 543 kts | 51° |
| 2026-04-23 16:34 | 34.85353 | -116.84154 | 37828 ft | 539 kts | 50° |
| 2026-04-23 16:34 | 34.87532 | -116.80424 | 38062 ft | 541 kts | 50° |
| 2026-04-23 16:35 | 34.89714 | -116.76686 | 38295 ft | 542 kts | 50° |
| 2026-04-23 16:35 | 34.91922 | -116.73038 | 38551 ft | 540 kts | 46° |
| 2026-04-23 16:35 | 34.94423 | -116.69569 | 38793 ft | 537 kts | 42° |
| 2026-04-23 16:35 | 34.96926 | -116.66271 | 38997 ft | 537 kts | 41° |
| 2026-04-23 16:36 | 35.02002 | -116.59602 | 39087 ft | 534 kts | 42° |
| 2026-04-23 16:36 | 35.07049 | -116.52950 | 39074 ft | 533 kts | 41° |
| 2026-04-23 16:37 | 35.12092 | -116.46286 | 39050 ft | 533 kts | 41° |
| 2026-04-23 16:37 | 35.17122 | -116.39623 | 39089 ft | 533 kts | 42° |
| 2026-04-23 16:38 | 35.22142 | -116.32959 | 39071 ft | 532 kts | 42° |
| 2026-04-23 16:38 | 35.27147 | -116.26304 | 39064 ft | 531 kts | 42° |
| 2026-04-23 16:39 | 35.32150 | -116.19638 | 39063 ft | 532 kts | 42° |
| 2026-04-23 16:39 | 35.37157 | -116.12954 | 39070 ft | 532 kts | 42° |
| 2026-04-23 16:40 | 35.42171 | -116.06246 | 39070 ft | 533 kts | 42° |
| 2026-04-23 16:40 | 35.47150 | -115.99571 | 39077 ft | 533 kts | 42° |
| 2026-04-23 16:41 | 35.52152 | -115.92853 | 39086 ft | 533 kts | 42° |
| 2026-04-23 16:41 | 35.57155 | -115.86121 | 39080 ft | 534 kts | 42° |
| 2026-04-23 16:42 | 35.62159 | -115.79374 | 39079 ft | 534 kts | 42° |
| 2026-04-23 16:42 | 35.67141 | -115.72589 | 39093 ft | 534 kts | 43° |
| 2026-04-23 16:43 | 35.72055 | -115.65812 | 39090 ft | 534 kts | 43° |
| 2026-04-23 16:43 | 35.77016 | -115.58969 | 39100 ft | 536 kts | 42° |
| 2026-04-23 16:44 | 35.81984 | -115.52109 | 39109 ft | 537 kts | 42° |
| 2026-04-23 16:44 | 35.86944 | -115.45245 | 39102 ft | 534 kts | 43° |
| 2026-04-23 16:45 | 35.91876 | -115.38406 | 39103 ft | 532 kts | 43° |
| 2026-04-23 16:45 | 35.96770 | -115.31609 | 39110 ft | 532 kts | 43° |
| 2026-04-23 16:46 | 36.01690 | -115.24763 | 39109 ft | 533 kts | 43° |
| 2026-04-23 16:46 | 36.06613 | -115.17902 | 39090 ft | 533 kts | 43° |
| 2026-04-23 16:47 | 36.11921 | -115.11614 | 39090 ft | 526 kts | 35° |
| 2026-04-23 16:47 | 36.17449 | -115.05684 | 39051 ft | 525 kts | 34° |
| 2026-04-23 16:48 | 36.22997 | -114.99786 | 39047 ft | 525 kts | 33° |
| 2026-04-23 16:48 | 36.28532 | -114.93846 | 39046 ft | 528 kts | 34° |
| 2026-04-23 16:49 | 36.34069 | -114.87857 | 39030 ft | 528 kts | 34° |
| 2026-04-23 16:49 | 36.39601 | -114.81852 | 39015 ft | 528 kts | 34° |
| 2026-04-23 16:50 | 36.45139 | -114.75840 | 39035 ft | 528 kts | 34° |
| 2026-04-23 16:50 | 36.50641 | -114.69852 | 38991 ft | 530 kts | 34° |
| 2026-04-23 16:51 | 36.56191 | -114.63796 | 38986 ft | 531 kts | 34° |
| 2026-04-23 16:51 | 36.61739 | -114.57729 | 38990 ft | 531 kts | 34° |
| 2026-04-23 16:52 | 36.67286 | -114.51655 | 38991 ft | 531 kts | 34° |
| 2026-04-23 16:52 | 36.73045 | -114.46017 | 39001 ft | 521 kts | 25° |
| 2026-04-23 16:53 | 36.79088 | -114.41142 | 38997 ft | 519 kts | 24° |
| 2026-04-23 16:53 | 36.85214 | -114.36353 | 38992 ft | 518 kts | 23° |
| 2026-04-23 16:54 | 36.91331 | -114.31575 | 39007 ft | 518 kts | 23° |
| 2026-04-23 16:54 | 36.96405 | -114.27590 | 38997 ft | 518 kts | 23° |
| 2026-04-23 16:55 | 37.02505 | -114.22782 | 39019 ft | 518 kts | 23° |
| 2026-04-23 16:55 | 37.08605 | -114.17961 | 39000 ft | 517 kts | 23° |
| 2026-04-23 16:56 | 37.15421 | -114.12561 | 39009 ft | 517 kts | 23° |
| 2026-04-23 16:56 | 37.20523 | -114.08513 | 39010 ft | 517 kts | 23° |
| 2026-04-23 16:57 | 37.26606 | -114.03678 | 39015 ft | 517 kts | 23° |
| 2026-04-23 16:57 | 37.32681 | -113.98840 | 39018 ft | 517 kts | 24° |
| 2026-04-23 16:58 | 37.38722 | -113.94018 | 38730 ft | 516 kts | 23° |
| 2026-04-23 16:58 | 37.41753 | -113.91596 | 38331 ft | 516 kts | 23° |
| 2026-04-23 16:58 | 37.44788 | -113.89169 | 37915 ft | 517 kts | 23° |
| 2026-04-23 16:59 | 37.47845 | -113.86724 | 37520 ft | 519 kts | 23° |
| 2026-04-23 16:59 | 37.50895 | -113.84282 | 37129 ft | 519 kts | 23° |
| 2026-04-23 16:59 | 37.53946 | -113.81835 | 36744 ft | 520 kts | 23° |
| 2026-04-23 16:59 | 37.57006 | -113.79378 | 36405 ft | 520 kts | 23° |
| 2026-04-23 17:00 | 37.60058 | -113.76925 | 36038 ft | 521 kts | 23° |
| 2026-04-23 17:00 | 37.63077 | -113.74496 | 35697 ft | 522 kts | 23° |
| 2026-04-23 17:00 | 37.66135 | -113.72033 | 35339 ft | 522 kts | 23° |
| 2026-04-23 17:00 | 37.69205 | -113.69559 | 35091 ft | 523 kts | 23° |
| 2026-04-23 17:01 | 37.75357 | -113.64592 | 35036 ft | 525 kts | 23° |
| 2026-04-23 17:01 | 37.81514 | -113.59608 | 35072 ft | 524 kts | 23° |
| 2026-04-23 17:02 | 37.87647 | -113.54634 | 35028 ft | 523 kts | 24° |
| 2026-04-23 17:02 | 37.93638 | -113.49479 | 35030 ft | 531 kts | 32° |
| 2026-04-23 17:03 | 37.99243 | -113.43303 | 35023 ft | 534 kts | 33° |
| 2026-04-23 17:03 | 38.04697 | -113.37119 | 35017 ft | 511 kts | 33° |
| 2026-04-23 17:04 | 38.10026 | -113.31081 | 35047 ft | 523 kts | 34° |
| 2026-04-23 17:04 | 38.15545 | -113.24814 | 35038 ft | 539 kts | 34° |
| 2026-04-23 17:05 | 38.21143 | -113.18418 | 35070 ft | 541 kts | 34° |
| 2026-04-23 17:05 | 38.26704 | -113.12051 | 35088 ft | 541 kts | 34° |
| 2026-04-23 17:06 | 38.32304 | -113.05629 | 35111 ft | 541 kts | 34° |
| 2026-04-23 17:06 | 38.38315 | -113.00194 | 35129 ft | 518 kts | 16° |
| 2026-04-23 17:07 | 38.44893 | -112.96592 | 35116 ft | 513 kts | 13° |
| 2026-04-23 17:07 | 38.51489 | -112.93095 | 35110 ft | 513 kts | 13° |
| 2026-04-23 17:08 | 38.58045 | -112.89599 | 35105 ft | 513 kts | 13° |
| 2026-04-23 17:08 | 38.64635 | -112.86073 | 35075 ft | 512 kts | 14° |
| 2026-04-23 17:09 | 38.71203 | -112.82550 | 35044 ft | 511 kts | 14° |
| 2026-04-23 17:09 | 38.77759 | -112.79027 | 34869 ft | 513 kts | 14° |
| 2026-04-23 17:10 | 38.81070 | -112.77249 | 34645 ft | 517 kts | 14° |
| 2026-04-23 17:10 | 38.84406 | -112.75453 | 34412 ft | 518 kts | 14° |
| 2026-04-23 17:10 | 38.87728 | -112.73668 | 34212 ft | 517 kts | 15° |
| 2026-04-23 17:10 | 38.91038 | -112.71876 | 33970 ft | 515 kts | 15° |
| 2026-04-23 17:11 | 38.94334 | -112.70090 | 33699 ft | 514 kts | 15° |
| 2026-04-23 17:11 | 38.97630 | -112.68306 | 33430 ft | 513 kts | 16° |
| 2026-04-23 17:11 | 39.00915 | -112.66525 | 32972 ft | 511 kts | 16° |
| 2026-04-23 17:11 | 39.04185 | -112.64752 | 32098 ft | 510 kts | 17° |
| 2026-04-23 17:12 | 39.07408 | -112.63004 | 31289 ft | 507 kts | 18° |
| 2026-04-23 17:12 | 39.10653 | -112.61240 | 30525 ft | 503 kts | 19° |
| 2026-04-23 17:12 | 39.13837 | -112.59505 | 29659 ft | 487 kts | 20° |
| 2026-04-23 17:12 | 39.16897 | -112.57835 | 28959 ft | 471 kts | 20° |
| 2026-04-23 17:13 | 39.19895 | -112.56200 | 28348 ft | 465 kts | 20° |
| 2026-04-23 17:13 | 39.22862 | -112.54583 | 27757 ft | 459 kts | 20° |
| 2026-04-23 17:13 | 39.25790 | -112.52985 | 27167 ft | 454 kts | 20° |
| 2026-04-23 17:13 | 39.28683 | -112.51405 | 26586 ft | 449 kts | 20° |
| 2026-04-23 17:14 | 39.31546 | -112.49840 | 26017 ft | 445 kts | 20° |
| 2026-04-23 17:14 | 39.34377 | -112.48230 | 25442 ft | 441 kts | 21° |
| 2026-04-23 17:14 | 39.37131 | -112.46636 | 24869 ft | 437 kts | 20° |
| 2026-04-23 17:14 | 39.39894 | -112.45039 | 24319 ft | 433 kts | 20° |
| 2026-04-23 17:15 | 39.42641 | -112.43455 | 23744 ft | 430 kts | 20° |
| 2026-04-23 17:15 | 39.45359 | -112.41889 | 23113 ft | 426 kts | 20° |
| 2026-04-23 17:15 | 39.48047 | -112.40341 | 22536 ft | 421 kts | 20° |
| 2026-04-23 17:15 | 39.50707 | -112.38808 | 21970 ft | 415 kts | 20° |
| 2026-04-23 17:16 | 39.53334 | -112.37294 | 21401 ft | 411 kts | 20° |
| 2026-04-23 17:16 | 39.55941 | -112.35791 | 20828 ft | 406 kts | 20° |
| 2026-04-23 17:16 | 39.58515 | -112.34306 | 20261 ft | 403 kts | 20° |
| 2026-04-23 17:16 | 39.61062 | -112.32836 | 19691 ft | 399 kts | 20° |
| 2026-04-23 17:17 | 39.63594 | -112.31379 | 19118 ft | 396 kts | 20° |
| 2026-04-23 17:17 | 39.66114 | -112.29923 | 18447 ft | 396 kts | 21° |
| 2026-04-23 17:17 | 39.67778 | -112.28959 | 17998 ft | 395 kts | 21° |
| 2026-04-23 17:17 | 39.71103 | -112.27030 | 17184 ft | 388 kts | 21° |
| 2026-04-23 17:18 | 39.75990 | -112.24195 | 16027 ft | 380 kts | 21° |
| 2026-04-23 17:18 | 39.78377 | -112.22807 | 15710 ft | 369 kts | 21° |
| 2026-04-23 17:18 | 39.80635 | -112.21492 | 15593 ft | 353 kts | 21° |
| 2026-04-23 17:19 | 39.82831 | -112.20212 | 15459 ft | 338 kts | 20° |
| 2026-04-23 17:19 | 39.84924 | -112.18993 | 15328 ft | 323 kts | 20° |
| 2026-04-23 17:19 | 39.86936 | -112.17821 | 15194 ft | 310 kts | 20° |
| 2026-04-23 17:19 | 39.88867 | -112.16696 | 15066 ft | 298 kts | 20° |
| 2026-04-23 17:20 | 39.90720 | -112.15616 | 14931 ft | 288 kts | 20° |
| 2026-04-23 17:20 | 39.94446 | -112.13452 | 14433 ft | 295 kts | 20° |
| 2026-04-23 17:21 | 39.98219 | -112.11469 | 13822 ft | 292 kts | 13° |
| 2026-04-23 17:21 | 40.00165 | -112.10684 | 13690 ft | 292 kts | 13° |
| 2026-04-23 17:21 | 40.04041 | -112.09147 | 13432 ft | 291 kts | 13° |
| 2026-04-23 17:22 | 40.05980 | -112.08375 | 13273 ft | 291 kts | 13° |
| 2026-04-23 17:22 | 40.09855 | -112.06828 | 13022 ft | 291 kts | 13° |
| 2026-04-23 17:23 | 40.13701 | -112.05292 | 12750 ft | 290 kts | 13° |
| 2026-04-23 17:23 | 40.15635 | -112.04519 | 12613 ft | 290 kts | 13° |
| 2026-04-23 17:23 | 40.19492 | -112.02976 | 12355 ft | 290 kts | 13° |
| 2026-04-23 17:24 | 40.21417 | -112.02205 | 12203 ft | 289 kts | 13° |
| 2026-04-23 17:24 | 40.23341 | -112.01434 | 12084 ft | 289 kts | 13° |
| 2026-04-23 17:24 | 40.27180 | -111.99895 | 11814 ft | 287 kts | 14° |
| 2026-04-23 17:25 | 40.30988 | -111.98365 | 11535 ft | 286 kts | 13° |
| 2026-04-23 17:25 | 40.32879 | -111.97603 | 11413 ft | 280 kts | 14° |
| 2026-04-23 17:26 | 40.36476 | -111.96153 | 11124 ft | 262 kts | 13° |
| 2026-04-23 17:26 | 40.40006 | -111.95243 | 10832 ft | 257 kts | 356° |
| 2026-04-23 17:27 | 40.43578 | -111.95597 | 10099 ft | 257 kts | 352° |
| 2026-04-23 17:27 | 40.45339 | -111.95816 | 9935 ft | 249 kts | 352° |
| 2026-04-23 17:27 | 40.47010 | -111.96012 | 9772 ft | 240 kts | 352° |
| 2026-04-23 17:27 | 40.48669 | -111.96202 | 9618 ft | 234 kts | 349° |
| 2026-04-23 17:28 | 40.50279 | -111.96388 | 9464 ft | 235 kts | 352° |
| 2026-04-23 17:28 | 40.51905 | -111.96575 | 9315 ft | 234 kts | 350° |
| 2026-04-23 17:28 | 40.53523 | -111.96763 | 9108 ft | 233 kts | 352° |
| 2026-04-23 17:28 | 40.55126 | -111.96948 | 8823 ft | 230 kts | 351° |
| 2026-04-23 17:29 | 40.56703 | -111.97129 | 8519 ft | 224 kts | 351° |
| 2026-04-23 17:29 | 40.58247 | -111.97308 | 8163 ft | 220 kts | 351° |
| 2026-04-23 17:29 | 40.61231 | -111.97654 | 7534 ft | 210 kts | 352° |
| 2026-04-23 17:30 | 40.62189 | -111.97765 | 7339 ft | 206 kts | 352° |
| 2026-04-23 17:30 | 40.65416 | -111.98142 | 6672 ft | 194 kts | 351° |
| 2026-04-23 17:30 | 40.66729 | -111.98293 | 6411 ft | 183 kts | 350° |
| 2026-04-23 17:31 | 40.67960 | -111.98436 | 6184 ft | 172 kts | 351° |
| 2026-04-23 17:31 | 40.69101 | -111.98568 | 5984 ft | 158 kts | 350° |
| 2026-04-23 17:31 | 40.70153 | -111.98691 | 5787 ft | 147 kts | 349° |
| 2026-04-23 17:31 | 40.71156 | -111.98809 | 5604 ft | 143 kts | 351° |
| 2026-04-23 17:32 | 40.72149 | -111.98925 | 5386 ft | 143 kts | 351° |
| 2026-04-23 17:32 | 40.73137 | -111.99040 | 5177 ft | 142 kts | 350° |
| 2026-04-23 17:32 | 40.74114 | -111.99154 | 4967 ft | 140 kts | 351° |
| 2026-04-23 17:32 | 40.75086 | -111.99274 | 4750 ft | 141 kts | 351° |
| 2026-04-23 17:33 | 40.76058 | -111.99386 | 4572 ft | 141 kts | 354° |
| 2026-04-23 17:33 | 40.77027 | -111.99491 | 4364 ft | 139 kts | 352° |
| 2026-04-23 17:33 | 40.77988 | -111.99603 | 4273 ft | 136 kts | 352° |
| 2026-04-23 17:33 | 40.78778 | -111.99700 | 4239 ft | 95 kts | 355° |
| 2026-04-23 17:34 | 40.79338 | -111.99762 | 4237 ft | 74 kts | 356° |
| 2026-04-23 17:34 | 40.79623 | -111.99790 | 4236 ft | 14 kts | 3° |
| 2026-04-23 17:34 | 40.79827 | -111.99693 | 4237 ft | 0 kts | 46° |
| 2026-04-23 17:35 | 40.79827 | -111.99692 | 4237 ft | 0 kts | 51° |
| 2026-04-23 17:35 | 40.79831 | -111.99619 | 4237 ft | 4 kts | 133° |
| 2026-04-23 17:35 | 40.79751 | -111.99592 | 4237 ft | 14 kts | 175° |
| 2026-04-23 17:36 | 40.79649 | -111.99580 | 4237 ft | 16 kts | 174° |
| 2026-04-23 17:36 | 40.79534 | -111.99566 | 4237 ft | 18 kts | 174° |
| 2026-04-23 17:36 | 40.79407 | -111.99551 | 4237 ft | 19 kts | 175° |
| 2026-04-23 17:36 | 40.79271 | -111.99536 | 4237 ft | 20 kts | 174° |
| 2026-04-23 17:37 | 40.79131 | -111.99519 | 4238 ft | 21 kts | 175° |
| 2026-04-23 17:37 | 40.78984 | -111.99503 | 4238 ft | 21 kts | 175° |
| 2026-04-23 17:37 | 40.78769 | -111.99478 | 4238 ft | 5 kts | 176° |
| 2026-04-23 17:38 | 40.78726 | -111.99462 | 4238 ft | 7 kts | 147° |
| 2026-04-23 17:38 | 40.78719 | -111.99405 | 4238 ft | 7 kts | 84° |
| 2026-04-23 17:38 | 40.78724 | -111.99320 | 4237 ft | 11 kts | 86° |
| 2026-04-23 17:38 | 40.78725 | -111.99210 | 4237 ft | 13 kts | 88° |
| 2026-04-23 17:39 | 40.78735 | -111.99075 | 4237 ft | 16 kts | 84° |
| 2026-04-23 17:39 | 40.78746 | -111.98920 | 4237 ft | 18 kts | 84° |
| 2026-04-23 17:39 | 40.78754 | -111.98815 | 4237 ft | 0 kts | 84° |
| 2026-04-23 17:40 | 40.78754 | -111.98812 | 4237 ft | 3 kts | 84° |
| 2026-04-23 17:40 | 40.78757 | -111.98766 | 4237 ft | 6 kts | 85° |
| 2026-04-23 17:40 | 40.78762 | -111.98696 | 4237 ft | 9 kts | 84° |
| 2026-04-23 17:40 | 40.78734 | -111.98633 | 4237 ft | 9 kts | 153° |
| 2026-04-23 17:41 | 40.78669 | -111.98617 | 4237 ft | 9 kts | 173° |
| 2026-04-23 17:41 | 40.78623 | -111.98612 | 4237 ft | 2 kts | 175° |
| 2026-04-23 17:41 | 40.78614 | -111.98611 | 4237 ft | 0 kts | 176° |